sensor_id;sensor_type;location;lat;lon;timestamp;pressure;altitude;pressure_sealevel;temperature;humidity
8075;BME280;4080;42.676;23.372;2023-05-24T00:00:27;94939.84;;;15.91;100.00
8075;BME280;4080;42.676;23.372;2023-05-24T00:02:53;94939.06;;;15.90;100.00
8075;BME280;4080;42.676;23.372;2023-05-24T00:05:22;94898.22;;;15.64;100.00
8075;BME280;4080;42.676;23.372;2023-05-24T00:07:48;94935.53;;;15.95;100.00
8075;BME280;4080;42.676;23.372;2023-05-24T00:10:15;94943.41;;;15.86;100.00
8075;BME280;4080;42.676;23.372;2023-05-24T00:12:43;94941.91;;;15.71;100.00
8075;BME280;4080;42.676;23.372;2023-05-24T00:15:10;94934.06;;;15.66;100.00
8075;BME280;4080;42.676;23.372;2023-05-24T00:17:37;94931.47;;;15.75;100.00
8075;BME280;4080;42.676;23.372;2023-05-24T00:20:07;94923.53;;;15.83;100.00
8075;BME280;4080;42.676;23.372;2023-05-24T00:22:35;94923.22;;;15.85;100.00
8075;BME280;4080;42.676;23.372;2023-05-24T00:25:03;94926.19;;;15.83;100.00
8075;BME280;4080;42.676;23.372;2023-05-24T00:27:30;94932.78;;;15.86;100.00
8075;BME280;4080;42.676;23.372;2023-05-24T00:29:58;94934.97;;;15.84;100.00
8075;BME280;4080;42.676;23.372;2023-05-24T00:32:25;94929.09;;;15.73;100.00
8075;BME280;4080;42.676;23.372;2023-05-24T00:34:52;94933.34;;;15.74;100.00
8075;BME280;4080;42.676;23.372;2023-05-24T00:37:18;94930.50;;;15.71;100.00
8075;BME280;4080;42.676;23.372;2023-05-24T00:39:45;94922.56;;;15.43;100.00
8075;BME280;4080;42.676;23.372;2023-05-24T00:42:12;94923.69;;;15.29;100.00
8075;BME280;4080;42.676;23.372;2023-05-24T00:44:38;94912.97;;;15.20;100.00
8075;BME280;4080;42.676;23.372;2023-05-24T00:47:06;94918.22;;;14.98;100.00
8075;BME280;4080;42.676;23.372;2023-05-24T00:49:33;94922.66;;;14.88;100.00
8075;BME280;4080;42.676;23.372;2023-05-24T00:52:00;94917.84;;;14.90;100.00
8075;BME280;4080;42.676;23.372;2023-05-24T00:54:27;94920.78;;;15.03;100.00
8075;BME280;4080;42.676;23.372;2023-05-24T00:56:55;94929.81;;;15.15;100.00
8075;BME280;4080;42.676;23.372;2023-05-24T00:59:22;94922.22;;;15.22;100.00
8075;BME280;4080;42.676;23.372;2023-05-24T01:01:49;94918.97;;;15.26;100.00
8075;BME280;4080;42.676;23.372;2023-05-24T01:04:17;94918.78;;;15.22;100.00
8075;BME280;4080;42.676;23.372;2023-05-24T01:06:54;94922.81;;;15.19;100.00
8075;BME280;4080;42.676;23.372;2023-05-24T01:09:29;94902.47;;;15.15;100.00
8075;BME280;4080;42.676;23.372;2023-05-24T01:12:06;94917.97;;;15.35;100.00
8075;BME280;4080;42.676;23.372;2023-05-24T01:14:40;94925.34;;;15.38;100.00
8075;BME280;4080;42.676;23.372;2023-05-24T01:17:13;94929.28;;;15.41;100.00
8075;BME280;4080;42.676;23.372;2023-05-24T01:19:51;94921.38;;;15.49;100.00
8075;BME280;4080;42.676;23.372;2023-05-24T01:22:52;94924.38;;;15.57;100.00
8075;BME280;4080;42.676;23.372;2023-05-24T01:25:44;94944.56;;;15.58;100.00
8075;BME280;4080;42.676;23.372;2023-05-24T01:28:15;94927.41;;;15.28;100.00
8075;BME280;4080;42.676;23.372;2023-05-24T01:30:43;94944.19;;;15.14;100.00
8075;BME280;4080;42.676;23.372;2023-05-24T01:33:10;94907.22;;;14.77;100.00
8075;BME280;4080;42.676;23.372;2023-05-24T01:35:37;94945.38;;;14.95;100.00
8075;BME280;4080;42.676;23.372;2023-05-24T01:38:06;94941.84;;;14.85;100.00
8075;BME280;4080;42.676;23.372;2023-05-24T01:40:33;94942.44;;;14.82;100.00
8075;BME280;4080;42.676;23.372;2023-05-24T01:43:04;94938.88;;;14.87;100.00
8075;BME280;4080;42.676;23.372;2023-05-24T01:45:39;94930.13;;;15.00;100.00
8075;BME280;4080;42.676;23.372;2023-05-24T01:48:15;94928.84;;;15.11;100.00
8075;BME280;4080;42.676;23.372;2023-05-24T01:50:48;94930.91;;;15.14;100.00
8075;BME280;4080;42.676;23.372;2023-05-24T01:53:19;94939.88;;;14.91;100.00
8075;BME280;4080;42.676;23.372;2023-05-24T01:55:52;94939.56;;;14.65;100.00
8075;BME280;4080;42.676;23.372;2023-05-24T01:58:20;94932.13;;;14.35;100.00
8075;BME280;4080;42.676;23.372;2023-05-24T02:00:50;94928.06;;;14.10;100.00
8075;BME280;4080;42.676;23.372;2023-05-24T02:03:17;94933.63;;;13.94;100.00
8075;BME280;4080;42.676;23.372;2023-05-24T02:05:45;94929.28;;;13.85;100.00
8075;BME280;4080;42.676;23.372;2023-05-24T02:08:12;94933.50;;;13.86;100.00
8075;BME280;4080;42.676;23.372;2023-05-24T02:10:39;94924.25;;;13.83;100.00
8075;BME280;4080;42.676;23.372;2023-05-24T02:13:07;94932.94;;;14.03;100.00
8075;BME280;4080;42.676;23.372;2023-05-24T02:15:34;94927.97;;;14.15;100.00
8075;BME280;4080;42.676;23.372;2023-05-24T02:18:02;94920.91;;;14.24;100.00
8075;BME280;4080;42.676;23.372;2023-05-24T02:20:32;94917.19;;;14.39;100.00
8075;BME280;4080;42.676;23.372;2023-05-24T02:23:01;94921.28;;;14.50;100.00
8075;BME280;4080;42.676;23.372;2023-05-24T02:25:28;94922.47;;;14.57;100.00
8075;BME280;4080;42.676;23.372;2023-05-24T02:27:56;94920.50;;;14.63;100.00
8075;BME280;4080;42.676;23.372;2023-05-24T02:30:22;94919.31;;;14.69;100.00
8075;BME280;4080;42.676;23.372;2023-05-24T02:32:49;94924.72;;;14.64;100.00
8075;BME280;4080;42.676;23.372;2023-05-24T02:35:17;94921.69;;;14.57;100.00
8075;BME280;4080;42.676;23.372;2023-05-24T02:37:44;94891.25;;;14.36;100.00
8075;BME280;4080;42.676;23.372;2023-05-24T02:40:11;94917.47;;;14.70;100.00
8075;BME280;4080;42.676;23.372;2023-05-24T02:42:38;94921.00;;;14.79;100.00
8075;BME280;4080;42.676;23.372;2023-05-24T02:45:06;94914.41;;;14.90;100.00
8075;BME280;4080;42.676;23.372;2023-05-24T02:47:33;94910.56;;;14.82;100.00
8075;BME280;4080;42.676;23.372;2023-05-24T02:49:59;94924.63;;;14.55;100.00
8075;BME280;4080;42.676;23.372;2023-05-24T02:52:27;94921.47;;;14.53;100.00
8075;BME280;4080;42.676;23.372;2023-05-24T02:54:55;94920.19;;;14.65;100.00
8075;BME280;4080;42.676;23.372;2023-05-24T02:57:22;94914.22;;;14.45;100.00
8075;BME280;4080;42.676;23.372;2023-05-24T02:59:48;94917.38;;;14.28;100.00
8075;BME280;4080;42.676;23.372;2023-05-24T03:02:15;94916.00;;;14.31;100.00
8075;BME280;4080;42.676;23.372;2023-05-24T03:04:42;94923.09;;;14.36;100.00
8075;BME280;4080;42.676;23.372;2023-05-24T03:07:08;94922.25;;;14.40;100.00
8075;BME280;4080;42.676;23.372;2023-05-24T03:09:37;94927.69;;;14.49;100.00
8075;BME280;4080;42.676;23.372;2023-05-24T03:12:04;94936.22;;;14.59;100.00
8075;BME280;4080;42.676;23.372;2023-05-24T03:14:31;94932.78;;;14.59;100.00
8075;BME280;4080;42.676;23.372;2023-05-24T03:16:58;94947.13;;;14.58;100.00
8075;BME280;4080;42.676;23.372;2023-05-24T03:19:24;94941.72;;;14.49;100.00
8075;BME280;4080;42.676;23.372;2023-05-24T03:21:51;94947.69;;;14.41;100.00
8075;BME280;4080;42.676;23.372;2023-05-24T03:24:18;94937.13;;;14.36;100.00
8075;BME280;4080;42.676;23.372;2023-05-24T03:26:46;94941.47;;;14.32;100.00
8075;BME280;4080;42.676;23.372;2023-05-24T03:29:13;94942.53;;;14.31;100.00
8075;BME280;4080;42.676;23.372;2023-05-24T03:31:39;94945.19;;;14.31;100.00
8075;BME280;4080;42.676;23.372;2023-05-24T03:34:06;94942.06;;;14.29;100.00
8075;BME280;4080;42.676;23.372;2023-05-24T03:36:33;94950.00;;;14.29;100.00
8075;BME280;4080;42.676;23.372;2023-05-24T03:39:00;94951.28;;;14.18;100.00
8075;BME280;4080;42.676;23.372;2023-05-24T03:41:28;94959.13;;;14.23;100.00
8075;BME280;4080;42.676;23.372;2023-05-24T03:43:56;94951.88;;;14.28;100.00
8075;BME280;4080;42.676;23.372;2023-05-24T03:46:23;94958.75;;;14.29;100.00
8075;BME280;4080;42.676;23.372;2023-05-24T03:48:50;94952.56;;;14.20;100.00
8075;BME280;4080;42.676;23.372;2023-05-24T03:51:17;94953.22;;;14.12;100.00
8075;BME280;4080;42.676;23.372;2023-05-24T03:53:43;94949.34;;;14.05;100.00
8075;BME280;4080;42.676;23.372;2023-05-24T03:56:10;94953.56;;;14.06;100.00
8075;BME280;4080;42.676;23.372;2023-05-24T03:58:37;94951.34;;;14.13;100.00
8075;BME280;4080;42.676;23.372;2023-05-24T04:01:05;94957.47;;;14.27;100.00
8075;BME280;4080;42.676;23.372;2023-05-24T04:03:32;94954.56;;;14.42;100.00
8075;BME280;4080;42.676;23.372;2023-05-24T04:05:59;94940.66;;;14.50;100.00
8075;BME280;4080;42.676;23.372;2023-05-24T04:08:26;94924.03;;;14.58;100.00
8075;BME280;4080;42.676;23.372;2023-05-24T04:10:52;94963.06;;;14.99;100.00
8075;BME280;4080;42.676;23.372;2023-05-24T04:13:19;94960.13;;;15.14;100.00
8075;BME280;4080;42.676;23.372;2023-05-24T04:15:46;94964.06;;;15.31;100.00
8075;BME280;4080;42.676;23.372;2023-05-24T04:18:14;94966.75;;;15.53;100.00
8075;BME280;4080;42.676;23.372;2023-05-24T04:20:41;94970.44;;;15.79;100.00
8075;BME280;4080;42.676;23.372;2023-05-24T04:23:07;94969.84;;;16.05;100.00
8075;BME280;4080;42.676;23.372;2023-05-24T04:25:34;94971.34;;;16.20;100.00
8075;BME280;4080;42.676;23.372;2023-05-24T04:28:01;94933.69;;;16.04;100.00
8075;BME280;4080;42.676;23.372;2023-05-24T04:30:28;94972.47;;;16.50;100.00
8075;BME280;4080;42.676;23.372;2023-05-24T04:32:55;94973.38;;;16.67;100.00
8075;BME280;4080;42.676;23.372;2023-05-24T04:35:23;94933.75;;;16.66;100.00
8075;BME280;4080;42.676;23.372;2023-05-24T04:37:50;94978.75;;;17.16;100.00
8075;BME280;4080;42.676;23.372;2023-05-24T04:40:17;94978.63;;;17.38;100.00
8075;BME280;4080;42.676;23.372;2023-05-24T04:42:47;94982.91;;;17.56;100.00
8075;BME280;4080;42.676;23.372;2023-05-24T04:45:13;94982.44;;;17.63;100.00
8075;BME280;4080;42.676;23.372;2023-05-24T04:47:40;94979.00;;;17.62;100.00
8075;BME280;4080;42.676;23.372;2023-05-24T04:50:08;94994.44;;;17.83;100.00
8075;BME280;4080;42.676;23.372;2023-05-24T04:52:36;94996.63;;;17.98;100.00
8075;BME280;4080;42.676;23.372;2023-05-24T04:55:03;95000.41;;;18.14;100.00
8075;BME280;4080;42.676;23.372;2023-05-24T04:57:30;94995.06;;;18.14;100.00
8075;BME280;4080;42.676;23.372;2023-05-24T04:59:57;94996.59;;;18.24;100.00
8075;BME280;4080;42.676;23.372;2023-05-24T05:02:23;95000.19;;;18.37;100.00
8075;BME280;4080;42.676;23.372;2023-05-24T05:04:51;95005.97;;;18.65;100.00
8075;BME280;4080;42.676;23.372;2023-05-24T05:07:18;95011.44;;;18.85;100.00
8075;BME280;4080;42.676;23.372;2023-05-24T05:09:46;95008.25;;;19.01;98.62
8075;BME280;4080;42.676;23.372;2023-05-24T05:12:13;95010.94;;;19.01;97.85
8075;BME280;4080;42.676;23.372;2023-05-24T05:14:40;95004.56;;;19.14;97.09
8075;BME280;4080;42.676;23.372;2023-05-24T05:17:07;95011.75;;;19.31;96.36
8075;BME280;4080;42.676;23.372;2023-05-24T05:19:34;95005.22;;;19.40;95.71
8075;BME280;4080;42.676;23.372;2023-05-24T05:22:01;95015.22;;;19.61;95.88
8075;BME280;4080;42.676;23.372;2023-05-24T05:24:27;95004.66;;;19.85;95.70
8075;BME280;4080;42.676;23.372;2023-05-24T05:26:55;95010.03;;;20.06;94.15
8075;BME280;4080;42.676;23.372;2023-05-24T05:29:22;95014.78;;;20.21;92.48
8075;BME280;4080;42.676;23.372;2023-05-24T05:31:49;95014.06;;;20.33;89.58
8075;BME280;4080;42.676;23.372;2023-05-24T05:34:15;95015.13;;;20.40;89.31
8075;BME280;4080;42.676;23.372;2023-05-24T05:36:42;95010.78;;;20.48;91.41
8075;BME280;4080;42.676;23.372;2023-05-24T05:39:09;95017.44;;;20.75;92.15
8075;BME280;4080;42.676;23.372;2023-05-24T05:41:37;95019.63;;;21.06;90.33
8075;BME280;4080;42.676;23.372;2023-05-24T05:44:05;95021.03;;;21.24;88.15
8075;BME280;4080;42.676;23.372;2023-05-24T05:46:32;95020.38;;;21.27;86.85
8075;BME280;4080;42.676;23.372;2023-05-24T05:48:59;95016.56;;;21.41;86.69
8075;BME280;4080;42.676;23.372;2023-05-24T05:51:25;95019.78;;;21.58;86.23
8075;BME280;4080;42.676;23.372;2023-05-24T05:53:52;95011.50;;;21.76;85.53
8075;BME280;4080;42.676;23.372;2023-05-24T05:56:19;95018.28;;;21.97;85.98
8075;BME280;4080;42.676;23.372;2023-05-24T05:58:45;95022.50;;;22.23;84.28
8075;BME280;4080;42.676;23.372;2023-05-24T06:01:14;95022.34;;;22.31;83.52
8075;BME280;4080;42.676;23.372;2023-05-24T06:03:41;95025.78;;;22.44;81.27
8075;BME280;4080;42.676;23.372;2023-05-24T06:06:08;95027.88;;;22.51;80.12
8075;BME280;4080;42.676;23.372;2023-05-24T06:08:34;95029.28;;;22.60;79.67
8075;BME280;4080;42.676;23.372;2023-05-24T06:11:01;94983.25;;;22.34;79.07
8075;BME280;4080;42.676;23.372;2023-05-24T06:13:28;95025.44;;;22.74;78.68
8075;BME280;4080;42.676;23.372;2023-05-24T06:15:55;95024.75;;;22.77;75.76
8075;BME280;4080;42.676;23.372;2023-05-24T06:18:24;95028.22;;;22.77;77.29
8075;BME280;4080;42.676;23.372;2023-05-24T06:20:51;95035.47;;;23.05;76.68
8075;BME280;4080;42.676;23.372;2023-05-24T06:23:18;95042.06;;;23.23;74.92
8075;BME280;4080;42.676;23.372;2023-05-24T06:25:45;95036.63;;;23.35;74.89
8075;BME280;4080;42.676;23.372;2023-05-24T06:28:12;95032.00;;;23.51;74.62
8075;BME280;4080;42.676;23.372;2023-05-24T06:30:39;95021.78;;;23.41;73.58
8075;BME280;4080;42.676;23.372;2023-05-24T06:33:06;95037.50;;;23.39;74.57
